Aérodrome :
LOGIN :

S'inscrire | Disclaimer

   EN    FR    IT 

 










Légende :    VFR   VFR Marginal   IFR   IFR Intensif   IFR Très Intensif
Visi : 
Plafond : 
>= 8 km
>= 3000ft
5 à 8 km
1000 à 3000 ft
1500m à 5 km
500 à 1000 ft
800 à 1500m
200 à 500 ft
< 800m
< 200 ft
Symboles :   Orages  Brouillard  Fortes neiges  Fortes précipitations  Vent > 20 kt
SIGMETs :   Divers  Orages  Givrage  Turbulence  Onde Orograph.  Cendres Volcan.







- Altitude de l'aérodrome : 24 ft
- Code IATA : SGD


EKSB - Sonderborg

DERNIER METAR :
  • 161850Z AUTO 21002KT 3000NDV BR BKN150/// 15/14 Q1018

METARs EXPIRÉS :
  • 161820Z AUTO 21004KT 4300NDV BR BKN150/// 15/14 Q1018
  • 161750Z AUTO 18003KT 3100NDV BR BKN150/// 14/14 Q1018
  • 161720Z AUTO 20002KT 3800NDV BR SCT150/// 15/14 Q1018
  • 161650Z AUTO 24002KT 5000NDV NCD 15/14 Q1018
  • 161620Z 23001KT 6000 NSC 16/14 Q1018

TAF AMD TAF EKSB
Valide du 16 à 17h jusqu'au 16 à 21h UTC


161724Z 1617/1621 24005KT 6000 BKN012
TEMPO 1617/1621 4000 BR BKN018
Pas de NOTAMs connus pour ce terrain.



MET'MAP, la Météo Aéronautique d'un coup d'oeil ! - Copyright ORBIFLY Décembre 2007 - Disclaimer

ORBIFLY MET'MAP TEAM :

Programmation & Développement : Alexandra Zaïnal
Conception & Développement : Baudouin d'Aumeries
Co-Programmation & Développement : Marc-Olivier Méhu
Soutien technique & logistique : Manuel Goepfert

Contact : metmap@orbifly.com




SOURCES & CREDITS :

   NOAA